sensor_id;sensor_type;location;lat;lon;timestamp;temperature;humidity
2889;DHT22;1453;42.708;23.282;2022-11-06T00:01:33;12.00;99.90
2889;DHT22;1453;42.708;23.282;2022-11-06T00:03:59;12.00;99.90
2889;DHT22;1453;42.708;23.282;2022-11-06T00:06:25;12.10;99.90
2889;DHT22;1453;42.708;23.282;2022-11-06T00:09:11;11.90;99.90
2889;DHT22;1453;42.708;23.282;2022-11-06T00:11:39;12.20;99.90
2889;DHT22;1453;42.708;23.282;2022-11-06T00:14:05;12.30;99.90
2889;DHT22;1453;42.708;23.282;2022-11-06T00:16:32;12.30;99.90
2889;DHT22;1453;42.708;23.282;2022-11-06T00:19:00;12.40;99.90
2889;DHT22;1453;42.708;23.282;2022-11-06T00:21:27;12.50;99.90
2889;DHT22;1453;42.708;23.282;2022-11-06T00:23:56;12.70;99.90
2889;DHT22;1453;42.708;23.282;2022-11-06T00:26:24;12.50;99.90
2889;DHT22;1453;42.708;23.282;2022-11-06T00:28:53;12.30;99.90
2889;DHT22;1453;42.708;23.282;2022-11-06T00:31:23;12.10;99.90
2889;DHT22;1453;42.708;23.282;2022-11-06T00:33:51;12.00;99.90
2889;DHT22;1453;42.708;23.282;2022-11-06T00:36:20;11.50;99.90
2889;DHT22;1453;42.708;23.282;2022-11-06T00:38:50;11.60;99.90
2889;DHT22;1453;42.708;23.282;2022-11-06T00:41:17;11.80;99.90
2889;DHT22;1453;42.708;23.282;2022-11-06T00:43:48;11.90;99.90
2889;DHT22;1453;42.708;23.282;2022-11-06T00:46:16;11.60;99.90
2889;DHT22;1453;42.708;23.282;2022-11-06T00:48:42;11.70;99.90
2889;DHT22;1453;42.708;23.282;2022-11-06T00:51:15;11.60;99.90
2889;DHT22;1453;42.708;23.282;2022-11-06T00:53:43;11.60;99.90
2889;DHT22;1453;42.708;23.282;2022-11-06T00:58:36;12.30;99.90
2889;DHT22;1453;42.708;23.282;2022-11-06T01:01:21;12.40;99.90
2889;DHT22;1453;42.708;23.282;2022-11-06T01:04:19;12.50;99.90
2889;DHT22;1453;42.708;23.282;2022-11-06T01:06:50;12.70;99.90
2889;DHT22;1453;42.708;23.282;2022-11-06T01:09:20;12.80;99.90
2889;DHT22;1453;42.708;23.282;2022-11-06T01:11:49;12.90;99.90
2889;DHT22;1453;42.708;23.282;2022-11-06T01:14:19;13.10;99.90
2889;DHT22;1453;42.708;23.282;2022-11-06T01:16:45;13.10;99.90
2889;DHT22;1453;42.708;23.282;2022-11-06T01:19:13;12.80;99.90
2889;DHT22;1453;42.708;23.282;2022-11-06T01:21:41;12.60;99.90
2889;DHT22;1453;42.708;23.282;2022-11-06T01:24:24;12.20;99.90
2889;DHT22;1453;42.708;23.282;2022-11-06T01:26:51;12.20;99.90
2889;DHT22;1453;42.708;23.282;2022-11-06T01:29:18;12.30;99.90
2889;DHT22;1453;42.708;23.282;2022-11-06T01:31:45;12.20;99.90
2889;DHT22;1453;42.708;23.282;2022-11-06T01:34:14;11.70;99.90
2889;DHT22;1453;42.708;23.282;2022-11-06T01:36:40;11.40;99.90
2889;DHT22;1453;42.708;23.282;2022-11-06T01:39:11;11.20;99.90
2889;DHT22;1453;42.708;23.282;2022-11-06T01:41:42;11.20;99.90
2889;DHT22;1453;42.708;23.282;2022-11-06T01:46:57;11.80;99.90
2889;DHT22;1453;42.708;23.282;2022-11-06T01:49:31;11.90;99.90
2889;DHT22;1453;42.708;23.282;2022-11-06T01:52:02;12.00;99.90
2889;DHT22;1453;42.708;23.282;2022-11-06T01:54:34;12.00;99.90
2889;DHT22;1453;42.708;23.282;2022-11-06T01:57:02;12.10;99.90
2889;DHT22;1453;42.708;23.282;2022-11-06T01:59:31;12.40;99.90
2889;DHT22;1453;42.708;23.282;2022-11-06T02:02:00;12.70;99.90
2889;DHT22;1453;42.708;23.282;2022-11-06T02:04:30;12.90;99.90
2889;DHT22;1453;42.708;23.282;2022-11-06T02:06:59;13.00;99.90
2889;DHT22;1453;42.708;23.282;2022-11-06T02:09:26;13.10;99.90
2889;DHT22;1453;42.708;23.282;2022-11-06T02:12:12;13.10;99.90
2889;DHT22;1453;42.708;23.282;2022-11-06T02:20:37;13.20;99.90
2889;DHT22;1453;42.708;23.282;2022-11-06T02:29:33;13.10;99.90
2889;DHT22;1453;42.708;23.282;2022-11-06T02:32:09;13.00;99.90
2889;DHT22;1453;42.708;23.282;2022-11-06T02:34:39;13.00;99.90
2889;DHT22;1453;42.708;23.282;2022-11-06T02:37:11;13.10;99.90
2889;DHT22;1453;42.708;23.282;2022-11-06T02:39:42;13.10;99.90
2889;DHT22;1453;42.708;23.282;2022-11-06T02:42:11;13.10;99.90
2889;DHT22;1453;42.708;23.282;2022-11-06T02:44:40;12.90;99.90
2889;DHT22;1453;42.708;23.282;2022-11-06T02:47:11;12.80;99.90
2889;DHT22;1453;42.708;23.282;2022-11-06T02:49:51;12.90;99.90
2889;DHT22;1453;42.708;23.282;2022-11-06T02:52:26;12.90;99.90
2889;DHT22;1453;42.708;23.282;2022-11-06T02:57:36;13.20;99.90
2889;DHT22;1453;42.708;23.282;2022-11-06T03:00:07;13.00;99.90
2889;DHT22;1453;42.708;23.282;2022-11-06T03:11:04;12.90;99.90
2889;DHT22;1453;42.708;23.282;2022-11-06T03:14:09;12.90;99.90
2889;DHT22;1453;42.708;23.282;2022-11-06T03:19:51;12.80;99.90
2889;DHT22;1453;42.708;23.282;2022-11-06T03:27:48;12.80;99.90
2889;DHT22;1453;42.708;23.282;2022-11-06T03:30:19;12.70;99.90
2889;DHT22;1453;42.708;23.282;2022-11-06T03:35:42;12.70;99.90
2889;DHT22;1453;42.708;23.282;2022-11-06T03:38:28;12.50;99.90
2889;DHT22;1453;42.708;23.282;2022-11-06T03:41:25;12.50;99.90
2889;DHT22;1453;42.708;23.282;2022-11-06T03:43:56;12.50;99.90
2889;DHT22;1453;42.708;23.282;2022-11-06T03:46:25;12.50;99.90
2889;DHT22;1453;42.708;23.282;2022-11-06T03:49:06;12.40;99.90
2889;DHT22;1453;42.708;23.282;2022-11-06T03:54:21;12.50;99.90
2889;DHT22;1453;42.708;23.282;2022-11-06T03:56:59;12.50;99.90
2889;DHT22;1453;42.708;23.282;2022-11-06T04:00:00;12.50;99.90
2889;DHT22;1453;42.708;23.282;2022-11-06T04:02:30;12.60;99.90
2889;DHT22;1453;42.708;23.282;2022-11-06T04:05:06;12.60;99.90
2889;DHT22;1453;42.708;23.282;2022-11-06T04:07:46;12.70;99.90
2889;DHT22;1453;42.708;23.282;2022-11-06T04:10:33;12.60;99.90
2889;DHT22;1453;42.708;23.282;2022-11-06T04:13:20;12.60;99.90
2889;DHT22;1453;42.708;23.282;2022-11-06T04:16:07;12.40;99.90
2889;DHT22;1453;42.708;23.282;2022-11-06T04:18:34;12.40;99.90
2889;DHT22;1453;42.708;23.282;2022-11-06T04:30:15;12.40;99.90
2889;DHT22;1453;42.708;23.282;2022-11-06T04:35:58;12.40;99.90
2889;DHT22;1453;42.708;23.282;2022-11-06T04:41:04;12.40;99.90
2889;DHT22;1453;42.708;23.282;2022-11-06T04:44:01;12.40;99.90
2889;DHT22;1453;42.708;23.282;2022-11-06T04:46:34;12.40;99.90
2889;DHT22;1453;42.708;23.282;2022-11-06T04:49:03;12.40;99.90
2889;DHT22;1453;42.708;23.282;2022-11-06T04:51:34;12.40;99.90
2889;DHT22;1453;42.708;23.282;2022-11-06T04:54:02;12.40;99.90
2889;DHT22;1453;42.708;23.282;2022-11-06T04:56:31;12.40;99.90
2889;DHT22;1453;42.708;23.282;2022-11-06T04:58:58;12.40;99.90
2889;DHT22;1453;42.708;23.282;2022-11-06T05:01:25;12.50;99.90
2889;DHT22;1453;42.708;23.282;2022-11-06T05:03:51;12.50;99.90
2889;DHT22;1453;42.708;23.282;2022-11-06T05:06:17;12.60;99.90
2889;DHT22;1453;42.708;23.282;2022-11-06T05:08:43;12.60;99.90
2889;DHT22;1453;42.708;23.282;2022-11-06T05:11:09;12.50;99.90
2889;DHT22;1453;42.708;23.282;2022-11-06T05:13:34;12.50;99.90
2889;DHT22;1453;42.708;23.282;2022-11-06T05:16:01;12.60;99.90
2889;DHT22;1453;42.708;23.282;2022-11-06T05:18:27;12.70;99.90
2889;DHT22;1453;42.708;23.282;2022-11-06T05:20:53;12.70;99.90
2889;DHT22;1453;42.708;23.282;2022-11-06T05:23:39;12.70;99.90
2889;DHT22;1453;42.708;23.282;2022-11-06T05:26:06;12.70;99.90
2889;DHT22;1453;42.708;23.282;2022-11-06T05:28:32;12.70;99.90
2889;DHT22;1453;42.708;23.282;2022-11-06T05:30:58;12.50;99.90
2889;DHT22;1453;42.708;23.282;2022-11-06T05:33:24;12.50;99.90
2889;DHT22;1453;42.708;23.282;2022-11-06T05:35:51;12.60;99.90
2889;DHT22;1453;42.708;23.282;2022-11-06T05:38:17;12.70;99.90
2889;DHT22;1453;42.708;23.282;2022-11-06T05:40:43;12.70;99.90
2889;DHT22;1453;42.708;23.282;2022-11-06T05:43:09;12.70;99.90
2889;DHT22;1453;42.708;23.282;2022-11-06T05:45:34;12.90;99.90
2889;DHT22;1453;42.708;23.282;2022-11-06T05:48:00;12.90;99.90
2889;DHT22;1453;42.708;23.282;2022-11-06T05:50:26;13.00;99.90
2889;DHT22;1453;42.708;23.282;2022-11-06T05:52:52;12.90;99.90
2889;DHT22;1453;42.708;23.282;2022-11-06T05:55:17;12.90;99.90
2889;DHT22;1453;42.708;23.282;2022-11-06T05:57:43;12.80;99.90
2889;DHT22;1453;42.708;23.282;2022-11-06T06:00:10;12.80;99.90
2889;DHT22;1453;42.708;23.282;2022-11-06T06:02:37;12.80;99.90
2889;DHT22;1453;42.708;23.282;2022-11-06T06:05:03;12.80;99.90
2889;DHT22;1453;42.708;23.282;2022-11-06T06:07:31;12.70;99.90
2889;DHT22;1453;42.708;23.282;2022-11-06T06:09:57;12.70;99.90
2889;DHT22;1453;42.708;23.282;2022-11-06T06:12:23;12.70;99.90
2889;DHT22;1453;42.708;23.282;2022-11-06T06:14:51;12.70;99.90
2889;DHT22;1453;42.708;23.282;2022-11-06T06:17:17;12.90;99.90
2889;DHT22;1453;42.708;23.282;2022-11-06T06:19:43;13.00;99.90
2889;DHT22;1453;42.708;23.282;2022-11-06T06:22:09;12.90;99.90
2889;DHT22;1453;42.708;23.282;2022-11-06T06:24:35;12.90;99.90
2889;DHT22;1453;42.708;23.282;2022-11-06T06:27:01;13.00;99.90
2889;DHT22;1453;42.708;23.282;2022-11-06T06:29:27;12.90;99.90
2889;DHT22;1453;42.708;23.282;2022-11-06T06:31:53;13.00;99.90
2889;DHT22;1453;42.708;23.282;2022-11-06T06:34:18;13.10;99.90
2889;DHT22;1453;42.708;23.282;2022-11-06T06:36:48;13.10;99.90
2889;DHT22;1453;42.708;23.282;2022-11-06T06:39:15;13.10;99.90
2889;DHT22;1453;42.708;23.282;2022-11-06T06:41:41;13.00;99.90
2889;DHT22;1453;42.708;23.282;2022-11-06T06:44:07;13.20;99.90
2889;DHT22;1453;42.708;23.282;2022-11-06T06:46:33;13.20;99.90
2889;DHT22;1453;42.708;23.282;2022-11-06T06:48:59;13.20;99.90
2889;DHT22;1453;42.708;23.282;2022-11-06T06:51:24;13.20;99.90
2889;DHT22;1453;42.708;23.282;2022-11-06T06:53:50;13.20;99.90
2889;DHT22;1453;42.708;23.282;2022-11-06T06:56:16;13.20;99.90
2889;DHT22;1453;42.708;23.282;2022-11-06T06:58:42;13.20;99.90
2889;DHT22;1453;42.708;23.282;2022-11-06T07:01:09;13.30;99.90
2889;DHT22;1453;42.708;23.282;2022-11-06T07:03:38;13.30;99.90
2889;DHT22;1453;42.708;23.282;2022-11-06T07:06:05;13.50;99.90
2889;DHT22;1453;42.708;23.282;2022-11-06T07:08:32;13.50;99.90
2889;DHT22;1453;42.708;23.282;2022-11-06T07:11:06;13.70;99.90
2889;DHT22;1453;42.708;23.282;2022-11-06T07:13:33;13.80;99.90
2889;DHT22;1453;42.708;23.282;2022-11-06T07:16:05;13.70;99.90
2889;DHT22;1453;42.708;23.282;2022-11-06T07:18:33;13.60;99.90
2889;DHT22;1453;42.708;23.282;2022-11-06T07:21:00;13.60;99.90
2889;DHT22;1453;42.708;23.282;2022-11-06T07:23:29;13.70;99.90
2889;DHT22;1453;42.708;23.282;2022-11-06T07:25:54;13.60;99.90
2889;DHT22;1453;42.708;23.282;2022-11-06T07:28:20;13.70;99.90
2889;DHT22;1453;42.708;23.282;2022-11-06T07:30:46;13.70;99.90
2889;DHT22;1453;42.708;23.282;2022-11-06T07:33:12;13.60;99.90
2889;DHT22;1453;42.708;23.282;2022-11-06T07:35:38;13.60;99.90
2889;DHT22;1453;42.708;23.282;2022-11-06T07:38:05;13.60;99.90
2889;DHT22;1453;42.708;23.282;2022-11-06T07:40:35;13.70;99.90
2889;DHT22;1453;42.708;23.282;2022-11-06T07:43:05;13.80;99.90
2889;DHT22;1453;42.708;23.282;2022-11-06T07:45:32;13.70;99.90
2889;DHT22;1453;42.708;23.282;2022-11-06T07:47:58;13.80;99.90
2889;DHT22;1453;42.708;23.282;2022-11-06T07:50:24;13.80;99.90
2889;DHT22;1453;42.708;23.282;2022-11-06T07:52:51;13.90;99.90
2889;DHT22;1453;42.708;23.282;2022-11-06T07:55:17;13.90;99.90
2889;DHT22;1453;42.708;23.282;2022-11-06T07:57:43;14.00;99.90
2889;DHT22;1453;42.708;23.282;2022-11-06T08:00:09;14.10;99.90
2889;DHT22;1453;42.708;23.282;2022-11-06T08:02:35;14.20;99.90
2889;DHT22;1453;42.708;23.282;2022-11-06T08:05:02;14.30;99.90
2889;DHT22;1453;42.708;23.282;2022-11-06T08:07:28;14.30;99.90
2889;DHT22;1453;42.708;23.282;2022-11-06T08:09:53;14.40;99.90
2889;DHT22;1453;42.708;23.282;2022-11-06T08:12:19;14.40;99.90
2889;DHT22;1453;42.708;23.282;2022-11-06T08:14:45;14.40;99.90
2889;DHT22;1453;42.708;23.282;2022-11-06T08:17:11;14.20;99.90
2889;DHT22;1453;42.708;23.282;2022-11-06T08:19:36;14.30;99.90
2889;DHT22;1453;42.708;23.282;2022-11-06T08:22:02;14.30;99.90
2889;DHT22;1453;42.708;23.282;2022-11-06T08:24:28;14.30;99.90
2889;DHT22;1453;42.708;23.282;2022-11-06T08:26:54;14.30;99.90
2889;DHT22;1453;42.708;23.282;2022-11-06T08:29:20;14.20;99.90
2889;DHT22;1453;42.708;23.282;2022-11-06T08:31:45;14.30;99.90
2889;DHT22;1453;42.708;23.282;2022-11-06T08:34:11;14.20;99.90
2889;DHT22;1453;42.708;23.282;2022-11-06T08:36:43;14.20;99.90
2889;DHT22;1453;42.708;23.282;2022-11-06T08:39:10;14.30;99.90
2889;DHT22;1453;42.708;23.282;2022-11-06T08:41:38;14.20;99.90
2889;DHT22;1453;42.708;23.282;2022-11-06T08:44:05;14.30;99.90
2889;DHT22;1453;42.708;23.282;2022-11-06T08:46:30;14.20;99.90
2889;DHT22;1453;42.708;23.282;2022-11-06T08:48:56;14.00;99.90
2889;DHT22;1453;42.708;23.282;2022-11-06T08:51:22;14.00;99.90
2889;DHT22;1453;42.708;23.282;2022-11-06T08:53:48;13.90;99.90
2889;DHT22;1453;42.708;23.282;2022-11-06T08:56:14;13.90;99.90
2889;DHT22;1453;42.708;23.282;2022-11-06T08:58:39;13.80;99.90
2889;DHT22;1453;42.708;23.282;2022-11-06T09:01:05;13.80;99.90
2889;DHT22;1453;42.708;23.282;2022-11-06T09:03:31;13.80;99.90
2889;DHT22;1453;42.708;23.282;2022-11-06T09:05:57;13.80;99.90
2889;DHT22;1453;42.708;23.282;2022-11-06T09:08:23;13.80;99.90
2889;DHT22;1453;42.708;23.282;2022-11-06T09:10:49;13.90;99.90
2889;DHT22;1453;42.708;23.282;2022-11-06T09:13:15;14.00;99.90
2889;DHT22;1453;42.708;23.282;2022-11-06T09:15:42;14.10;99.90
2889;DHT22;1453;42.708;23.282;2022-11-06T09:18:09;14.10;99.90
2889;DHT22;1453;42.708;23.282;2022-11-06T09:20:35;14.00;99.90
2889;DHT22;1453;42.708;23.282;2022-11-06T09:23:04;14.00;99.90
2889;DHT22;1453;42.708;23.282;2022-11-06T09:25:31;14.10;99.90
2889;DHT22;1453;42.708;23.282;2022-11-06T09:27:57;14.20;99.90
2889;DHT22;1453;42.708;23.282;2022-11-06T09:30:25;14.10;99.90
2889;DHT22;1453;42.708;23.282;2022-11-06T09:32:55;14.20;99.90
2889;DHT22;1453;42.708;23.282;2022-11-06T09:35:24;14.20;99.90
2889;DHT22;1453;42.708;23.282;2022-11-06T09:37:50;14.20;99.90
2889;DHT22;1453;42.708;23.282;2022-11-06T09:42:54;13.90;99.90
2889;DHT22;1453;42.708;23.282;2022-11-06T09:45:30;14.00;99.90
2889;DHT22;1453;42.708;23.282;2022-11-06T09:50:41;14.00;99.90
2889;DHT22;1453;42.708;23.282;2022-11-06T09:53:35;13.90;99.90
2889;DHT22;1453;42.708;23.282;2022-11-06T09:56:11;13.70;99.90
2889;DHT22;1453;42.708;23.282;2022-11-06T09:58:41;13.70;99.90
2889;DHT22;1453;42.708;23.282;2022-11-06T10:01:21;13.70;99.90
2889;DHT22;1453;42.708;23.282;2022-11-06T10:03:56;13.80;99.90
2889;DHT22;1453;42.708;23.282;2022-11-06T10:06:24;13.80;99.90
2889;DHT22;1453;42.708;23.282;2022-11-06T10:08:54;13.80;99.90
2889;DHT22;1453;42.708;23.282;2022-11-06T10:11:26;13.70;99.90
2889;DHT22;1453;42.708;23.282;2022-11-06T10:17:12;14.00;99.90
2889;DHT22;1453;42.708;23.282;2022-11-06T10:20:29;13.90;99.90
2889;DHT22;1453;42.708;23.282;2022-11-06T10:23:07;13.90;99.90
2889;DHT22;1453;42.708;23.282;2022-11-06T10:36:18;14.10;99.90
2889;DHT22;1453;42.708;23.282;2022-11-06T10:38:48;14.10;99.90
2889;DHT22;1453;42.708;23.282;2022-11-06T10:41:34;14.10;99.90
2889;DHT22;1453;42.708;23.282;2022-11-06T10:44:09;14.10;99.90
2889;DHT22;1453;42.708;23.282;2022-11-06T10:46:49;14.00;99.90
2889;DHT22;1453;42.708;23.282;2022-11-06T10:57:54;14.20;99.90
2889;DHT22;1453;42.708;23.282;2022-11-06T11:00:44;14.30;99.90
2889;DHT22;1453;42.708;23.282;2022-11-06T11:03:33;14.30;99.90
2889;DHT22;1453;42.708;23.282;2022-11-06T11:06:00;14.20;99.90
2889;DHT22;1453;42.708;23.282;2022-11-06T11:08:44;14.10;99.90
2889;DHT22;1453;42.708;23.282;2022-11-06T11:16:38;13.90;99.90
2889;DHT22;1453;42.708;23.282;2022-11-06T11:19:36;13.90;99.90
2889;DHT22;1453;42.708;23.282;2022-11-06T11:22:21;14.00;99.90
2889;DHT22;1453;42.708;23.282;2022-11-06T11:25:01;13.80;99.90
2889;DHT22;1453;42.708;23.282;2022-11-06T11:27:35;13.80;99.90
2889;DHT22;1453;42.708;23.282;2022-11-06T11:30:20;13.60;99.90
2889;DHT22;1453;42.708;23.282;2022-11-06T11:32:48;13.50;99.90
2889;DHT22;1453;42.708;23.282;2022-11-06T11:35:22;13.70;99.90
2889;DHT22;1453;42.708;23.282;2022-11-06T11:37:51;13.70;99.90
2889;DHT22;1453;42.708;23.282;2022-11-06T11:40:36;13.70;99.90
2889;DHT22;1453;42.708;23.282;2022-11-06T11:43:28;13.70;99.90
2889;DHT22;1453;42.708;23.282;2022-11-06T11:46:16;13.70;99.90
2889;DHT22;1453;42.708;23.282;2022-11-06T11:48:56;13.80;99.90
2889;DHT22;1453;42.708;23.282;2022-11-06T11:57:04;13.80;99.90
2889;DHT22;1453;42.708;23.282;2022-11-06T11:59:36;13.80;99.90
2889;DHT22;1453;42.708;23.282;2022-11-06T12:04:43;13.70;99.90
2889;DHT22;1453;42.708;23.282;2022-11-06T12:07:42;13.80;99.90
2889;DHT22;1453;42.708;23.282;2022-11-06T12:10:30;13.90;99.90
2889;DHT22;1453;42.708;23.282;2022-11-06T12:13:21;13.90;99.90
2889;DHT22;1453;42.708;23.282;2022-11-06T12:18:29;14.00;99.90
2889;DHT22;1453;42.708;23.282;2022-11-06T12:21:11;14.00;99.90
2889;DHT22;1453;42.708;23.282;2022-11-06T12:26:56;13.80;99.90
2889;DHT22;1453;42.708;23.282;2022-11-06T12:29:38;13.90;99.90
2889;DHT22;1453;42.708;23.282;2022-11-06T12:35:31;13.80;99.90
2889;DHT22;1453;42.708;23.282;2022-11-06T12:41:24;13.90;99.90
2889;DHT22;1453;42.708;23.282;2022-11-06T12:43:52;14.00;99.90
2889;DHT22;1453;42.708;23.282;2022-11-06T12:52:11;13.60;99.90
2889;DHT22;1453;42.708;23.282;2022-11-06T13:04:16;13.80;99.90
2889;DHT22;1453;42.708;23.282;2022-11-06T13:12:37;14.00;99.90
2889;DHT22;1453;42.708;23.282;2022-11-06T13:23:36;14.10;99.90
2889;DHT22;1453;42.708;23.282;2022-11-06T13:26:26;13.90;99.90
2889;DHT22;1453;42.708;23.282;2022-11-06T13:28:56;13.90;99.90
2889;DHT22;1453;42.708;23.282;2022-11-06T13:31:30;13.80;99.90
2889;DHT22;1453;42.708;23.282;2022-11-06T13:34:01;13.90;99.90
2889;DHT22;1453;42.708;23.282;2022-11-06T13:36:29;13.90;99.90
2889;DHT22;1453;42.708;23.282;2022-11-06T13:39:14;13.70;99.90
2889;DHT22;1453;42.708;23.282;2022-11-06T13:41:44;13.70;99.90
2889;DHT22;1453;42.708;23.282;2022-11-06T13:44:10;13.80;99.90
2889;DHT22;1453;42.708;23.282;2022-11-06T13:52:15;13.90;99.90
2889;DHT22;1453;42.708;23.282;2022-11-06T14:06:19;13.90;99.90
2889;DHT22;1453;42.708;23.282;2022-11-06T14:08:58;13.80;99.90
2889;DHT22;1453;42.708;23.282;2022-11-06T14:11:35;13.80;99.90
2889;DHT22;1453;42.708;23.282;2022-11-06T14:14:05;13.90;99.90
2889;DHT22;1453;42.708;23.282;2022-11-06T14:16:38;13.90;99.90
2889;DHT22;1453;42.708;23.282;2022-11-06T14:19:12;14.00;99.90
2889;DHT22;1453;42.708;23.282;2022-11-06T14:21:54;13.90;99.90
2889;DHT22;1453;42.708;23.282;2022-11-06T14:32:56;14.00;99.90
2889;DHT22;1453;42.708;23.282;2022-11-06T14:38:12;14.00;99.90
2889;DHT22;1453;42.708;23.282;2022-11-06T14:40:41;13.90;99.90
2889;DHT22;1453;42.708;23.282;2022-11-06T14:43:32;13.90;99.90
2889;DHT22;1453;42.708;23.282;2022-11-06T14:46:19;14.00;99.90
2889;DHT22;1453;42.708;23.282;2022-11-06T14:48:52;14.10;99.90
2889;DHT22;1453;42.708;23.282;2022-11-06T14:51:25;14.00;99.90
2889;DHT22;1453;42.708;23.282;2022-11-06T14:53:58;14.10;99.90
2889;DHT22;1453;42.708;23.282;2022-11-06T14:56:29;14.10;99.90
2889;DHT22;1453;42.708;23.282;2022-11-06T14:58:59;14.20;99.90
2889;DHT22;1453;42.708;23.282;2022-11-06T15:01:31;14.10;99.90
2889;DHT22;1453;42.708;23.282;2022-11-06T15:04:18;14.10;99.90
2889;DHT22;1453;42.708;23.282;2022-11-06T15:06:47;14.10;99.90
2889;DHT22;1453;42.708;23.282;2022-11-06T15:11:56;14.10;99.90
2889;DHT22;1453;42.708;23.282;2022-11-06T15:17:09;14.10;99.90
2889;DHT22;1453;42.708;23.282;2022-11-06T15:19:40;14.20;99.90
2889;DHT22;1453;42.708;23.282;2022-11-06T15:22:24;14.20;99.90
2889;DHT22;1453;42.708;23.282;2022-11-06T15:24:54;14.10;99.90
2889;DHT22;1453;42.708;23.282;2022-11-06T15:27:27;14.10;99.90
2889;DHT22;1453;42.708;23.282;2022-11-06T15:29:58;14.10;99.90
2889;DHT22;1453;42.708;23.282;2022-11-06T15:32:28;14.10;99.90
2889;DHT22;1453;42.708;23.282;2022-11-06T15:35:10;14.10;99.90
2889;DHT22;1453;42.708;23.282;2022-11-06T15:37:49;14.20;99.90
2889;DHT22;1453;42.708;23.282;2022-11-06T15:40:34;14.10;99.90
2889;DHT22;1453;42.708;23.282;2022-11-06T15:46:28;14.10;99.90
2889;DHT22;1453;42.708;23.282;2022-11-06T15:51:53;14.10;99.90
2889;DHT22;1453;42.708;23.282;2022-11-06T15:54:39;14.00;99.90
2889;DHT22;1453;42.708;23.282;2022-11-06T15:57:14;14.00;99.90
2889;DHT22;1453;42.708;23.282;2022-11-06T15:59:43;14.00;99.90
2889;DHT22;1453;42.708;23.282;2022-11-06T16:02:18;14.10;99.90
2889;DHT22;1453;42.708;23.282;2022-11-06T16:04:47;14.10;99.90
2889;DHT22;1453;42.708;23.282;2022-11-06T16:07:15;14.00;99.90
2889;DHT22;1453;42.708;23.282;2022-11-06T16:09:42;14.10;99.90
2889;DHT22;1453;42.708;23.282;2022-11-06T16:12:14;14.10;99.90
2889;DHT22;1453;42.708;23.282;2022-11-06T16:14:43;14.20;99.90
2889;DHT22;1453;42.708;23.282;2022-11-06T16:17:21;14.10;99.90
2889;DHT22;1453;42.708;23.282;2022-11-06T16:19:50;14.00;99.90
2889;DHT22;1453;42.708;23.282;2022-11-06T16:22:26;14.00;99.90
2889;DHT22;1453;42.708;23.282;2022-11-06T16:25:05;14.10;99.90
2889;DHT22;1453;42.708;23.282;2022-11-06T16:27:36;14.30;99.90
2889;DHT22;1453;42.708;23.282;2022-11-06T16:30:05;14.30;99.90
2889;DHT22;1453;42.708;23.282;2022-11-06T16:32:37;14.40;99.90
2889;DHT22;1453;42.708;23.282;2022-11-06T16:35:30;14.40;99.90
2889;DHT22;1453;42.708;23.282;2022-11-06T16:40:51;14.60;99.90
2889;DHT22;1453;42.708;23.282;2022-11-06T16:43:19;14.40;99.90
2889;DHT22;1453;42.708;23.282;2022-11-06T16:45:57;14.40;99.90
2889;DHT22;1453;42.708;23.282;2022-11-06T16:48:41;14.20;99.90
2889;DHT22;1453;42.708;23.282;2022-11-06T16:51:30;14.00;99.90
2889;DHT22;1453;42.708;23.282;2022-11-06T16:53:58;14.10;99.90
2889;DHT22;1453;42.708;23.282;2022-11-06T16:56:32;13.90;99.90
2889;DHT22;1453;42.708;23.282;2022-11-06T17:01:35;14.00;99.90
2889;DHT22;1453;42.708;23.282;2022-11-06T17:04:03;14.00;99.90
2889;DHT22;1453;42.708;23.282;2022-11-06T17:06:30;13.90;99.90
2889;DHT22;1453;42.708;23.282;2022-11-06T17:11:46;14.00;99.90
2889;DHT22;1453;42.708;23.282;2022-11-06T17:14:20;14.00;99.90
2889;DHT22;1453;42.708;23.282;2022-11-06T17:16:51;14.00;99.90
2889;DHT22;1453;42.708;23.282;2022-11-06T17:19:19;14.10;99.90
2889;DHT22;1453;42.708;23.282;2022-11-06T17:21:47;14.20;99.90
2889;DHT22;1453;42.708;23.282;2022-11-06T17:24:13;14.20;99.90
2889;DHT22;1453;42.708;23.282;2022-11-06T17:26:47;14.20;99.90
2889;DHT22;1453;42.708;23.282;2022-11-06T17:29:15;14.10;99.90
2889;DHT22;1453;42.708;23.282;2022-11-06T17:31:41;14.20;99.90
2889;DHT22;1453;42.708;23.282;2022-11-06T17:34:08;14.30;99.90
2889;DHT22;1453;42.708;23.282;2022-11-06T17:36:35;14.30;99.90
2889;DHT22;1453;42.708;23.282;2022-11-06T17:39:02;14.30;99.90
2889;DHT22;1453;42.708;23.282;2022-11-06T17:41:28;14.20;99.90
2889;DHT22;1453;42.708;23.282;2022-11-06T17:43:59;14.20;99.90
2889;DHT22;1453;42.708;23.282;2022-11-06T17:49:07;14.10;99.90
2889;DHT22;1453;42.708;23.282;2022-11-06T17:51:34;14.20;99.90
2889;DHT22;1453;42.708;23.282;2022-11-06T17:54:25;14.10;99.90
2889;DHT22;1453;42.708;23.282;2022-11-06T17:56:53;14.20;99.90
2889;DHT22;1453;42.708;23.282;2022-11-06T17:59:20;14.20;99.90
2889;DHT22;1453;42.708;23.282;2022-11-06T18:01:46;14.30;99.90
2889;DHT22;1453;42.708;23.282;2022-11-06T18:04:14;14.30;99.90
2889;DHT22;1453;42.708;23.282;2022-11-06T18:06:43;14.30;99.90
2889;DHT22;1453;42.708;23.282;2022-11-06T18:09:10;14.30;99.90
2889;DHT22;1453;42.708;23.282;2022-11-06T18:11:36;14.10;99.90
2889;DHT22;1453;42.708;23.282;2022-11-06T18:14:02;14.10;99.90
2889;DHT22;1453;42.708;23.282;2022-11-06T18:16:30;14.20;99.90
2889;DHT22;1453;42.708;23.282;2022-11-06T18:18:58;14.20;99.90
2889;DHT22;1453;42.708;23.282;2022-11-06T18:21:24;14.20;99.90
2889;DHT22;1453;42.708;23.282;2022-11-06T18:23:50;14.20;99.90
2889;DHT22;1453;42.708;23.282;2022-11-06T18:26:17;14.10;99.90
2889;DHT22;1453;42.708;23.282;2022-11-06T18:28:46;14.10;99.90
2889;DHT22;1453;42.708;23.282;2022-11-06T18:31:12;14.10;99.90
2889;DHT22;1453;42.708;23.282;2022-11-06T18:33:38;14.20;99.90
2889;DHT22;1453;42.708;23.282;2022-11-06T18:36:06;14.10;99.90
2889;DHT22;1453;42.708;23.282;2022-11-06T18:38:33;14.10;99.90
2889;DHT22;1453;42.708;23.282;2022-11-06T18:41:08;14.00;99.90
2889;DHT22;1453;42.708;23.282;2022-11-06T18:43:36;14.00;99.90
2889;DHT22;1453;42.708;23.282;2022-11-06T18:46:06;14.20;99.90
2889;DHT22;1453;42.708;23.282;2022-11-06T18:48:36;13.90;99.90
2889;DHT22;1453;42.708;23.282;2022-11-06T18:51:15;14.00;99.90
2889;DHT22;1453;42.708;23.282;2022-11-06T18:53:43;14.10;99.90
2889;DHT22;1453;42.708;23.282;2022-11-06T18:56:10;14.00;99.90
2889;DHT22;1453;42.708;23.282;2022-11-06T18:58:37;13.90;99.90
2889;DHT22;1453;42.708;23.282;2022-11-06T19:01:05;14.00;99.90
2889;DHT22;1453;42.708;23.282;2022-11-06T19:03:32;14.10;99.90
2889;DHT22;1453;42.708;23.282;2022-11-06T19:05:58;14.00;99.90
2889;DHT22;1453;42.708;23.282;2022-11-06T19:08:24;14.10;99.90
2889;DHT22;1453;42.708;23.282;2022-11-06T19:10:50;14.00;99.90
2889;DHT22;1453;42.708;23.282;2022-11-06T19:13:16;13.90;99.90
2889;DHT22;1453;42.708;23.282;2022-11-06T19:15:43;13.90;99.90
2889;DHT22;1453;42.708;23.282;2022-11-06T19:18:10;14.00;99.90
2889;DHT22;1453;42.708;23.282;2022-11-06T19:20:41;13.80;99.90
2889;DHT22;1453;42.708;23.282;2022-11-06T19:23:09;13.80;99.90